createdAt,value
2017-05-14T00:00:21.466Z,99.99
2017-05-14T00:00:49.866Z,99.99
2017-05-14T00:01:18.191Z,99.99
2017-05-14T00:01:46.578Z,99.99
2017-05-14T00:02:14.878Z,99.99
2017-05-14T00:03:26.374Z,99.99
2017-05-14T00:03:54.757Z,99.99
2017-05-14T00:04:23.046Z,99.99
2017-05-14T00:04:51.395Z,99.99
2017-05-14T00:05:19.555Z,99.99
2017-05-14T00:05:47.845Z,99.99
2017-05-14T00:06:16.228Z,99.99
2017-05-14T00:06:44.621Z,99.99
2017-05-14T00:07:13.045Z,99.99
2017-05-14T00:07:41.433Z,99.99
2017-05-14T00:08:09.819Z,99.99
2017-05-14T00:09:21.227Z,99.99
2017-05-14T00:09:49.532Z,99.99
2017-05-14T00:10:17.815Z,99.99
2017-05-14T00:10:46.165Z,99.99
2017-05-14T00:11:14.514Z,99.99
2017-05-14T00:11:42.891Z,99.99
2017-05-14T00:12:11.274Z,99.99
2017-05-14T00:12:39.677Z,99.99
2017-05-14T00:13:08.004Z,99.99
2017-05-14T00:13:36.300Z,99.99
2017-05-14T00:14:04.692Z,99.99
2017-05-14T00:15:16.099Z,99.99
2017-05-14T00:15:44.489Z,99.99
2017-05-14T00:16:12.685Z,99.99
2017-05-14T00:16:41.034Z,99.99
2017-05-14T00:17:09.380Z,99.99
2017-05-14T00:17:37.580Z,99.99
2017-05-14T00:18:05.874Z,99.99
2017-05-14T00:18:34.272Z,99.99
2017-05-14T00:19:02.691Z,99.99
2017-05-14T00:19:30.887Z,99.99
2017-05-14T00:19:59.277Z,99.99
2017-05-14T00:21:10.778Z,99.99
2017-05-14T00:21:39.164Z,99.99
2017-05-14T00:22:07.359Z,99.99
2017-05-14T00:22:35.708Z,99.99
2017-05-14T00:23:04.051Z,99.99
2017-05-14T00:23:32.335Z,99.99
2017-05-14T00:24:00.533Z,99.99
2017-05-14T00:24:28.932Z,99.99
2017-05-14T00:24:57.262Z,99.99
2017-05-14T00:25:25.459Z,99.99
2017-05-14T00:25:53.857Z,99.99
2017-05-14T00:27:05.256Z,99.99
2017-05-14T00:27:33.463Z,99.99
2017-05-14T00:28:01.848Z,99.99
2017-05-14T00:28:30.099Z,99.99
2017-05-14T00:28:58.446Z,99.99
2017-05-14T00:29:26.827Z,99.99
2017-05-14T00:29:55.212Z,99.99
2017-05-14T00:30:23.423Z,99.99
2017-05-14T00:30:51.841Z,99.99
2017-05-14T00:31:20.040Z,99.99
2017-05-14T00:31:48.469Z,99.99
2017-05-14T00:32:59.925Z,99.99
2017-05-14T00:33:28.215Z,99.99
2017-05-14T00:33:56.596Z,99.99
2017-05-14T00:34:24.941Z,99.99
2017-05-14T00:34:53.196Z,99.99
2017-05-14T00:35:21.572Z,99.99
2017-05-14T00:35:49.959Z,99.99
2017-05-14T00:36:18.358Z,99.99
2017-05-14T00:36:46.592Z,99.99
2017-05-14T00:37:14.883Z,99.99
2017-05-14T00:37:43.276Z,99.99
2017-05-14T00:38:54.684Z,99.99
2017-05-14T00:39:23.075Z,99.99
2017-05-14T00:39:51.461Z,99.99
2017-05-14T00:40:19.811Z,99.99
2017-05-14T00:40:48.154Z,99.99
2017-05-14T00:41:16.533Z,99.99
2017-05-14T00:41:44.824Z,99.99
2017-05-14T00:42:13.221Z,99.99
2017-05-14T00:42:41.644Z,99.99
2017-05-14T00:43:10.034Z,99.99
2017-05-14T00:43:38.421Z,99.99
2017-05-14T00:44:49.921Z,99.99
2017-05-14T00:45:18.218Z,99.99
2017-05-14T00:45:46.505Z,99.99
2017-05-14T00:46:14.848Z,99.99
2017-05-14T00:46:43.185Z,99.99
2017-05-14T00:47:11.563Z,99.99
2017-05-14T00:47:39.852Z,99.99
2017-05-14T00:48:08.250Z,99.99
2017-05-14T00:48:36.666Z,99.99
2017-05-14T00:49:05.056Z,99.99
2017-05-14T00:49:33.442Z,99.99
2017-05-14T00:50:44.942Z,99.99
2017-05-14T00:51:13.334Z,99.99
2017-05-14T00:51:41.719Z,99.99
2017-05-14T00:52:09.973Z,99.99
2017-05-14T00:52:38.314Z,99.99
2017-05-14T00:53:06.601Z,99.99
2017-05-14T00:53:34.809Z,99.99
2017-05-14T00:54:03.213Z,99.99
2017-05-14T00:54:31.451Z,99.99
2017-05-14T00:54:59.743Z,99.99
2017-05-14T00:55:27.951Z,99.99
2017-05-14T00:56:39.359Z,99.99
2017-05-14T00:57:07.652Z,99.99
2017-05-14T00:57:35.941Z,99.99
2017-05-14T00:58:04.197Z,99.99
2017-05-14T00:58:32.442Z,99.99
2017-05-14T00:59:00.637Z,99.99
2017-05-14T00:59:29.024Z,99.99
2017-05-14T00:59:57.231Z,99.99
2017-05-14T01:00:25.650Z,99.99
2017-05-14T01:00:53.944Z,99.99
2017-05-14T01:01:22.335Z,99.99
2017-05-14T01:02:33.746Z,99.99
2017-05-14T01:03:02.036Z,99.99
2017-05-14T01:03:30.427Z,99.99
2017-05-14T01:03:58.776Z,99.99
2017-05-14T01:04:27.025Z,99.99
2017-05-14T01:04:55.309Z,99.99
2017-05-14T01:05:23.601Z,99.99
2017-05-14T01:05:51.998Z,99.99
2017-05-14T01:06:20.329Z,99.99
2017-05-14T01:06:48.623Z,99.99
2017-05-14T01:07:17.015Z,99.99
2017-05-14T01:08:28.515Z,99.99
2017-05-14T01:08:56.901Z,99.99
2017-05-14T01:09:25.191Z,99.99
2017-05-14T01:09:53.540Z,99.99
2017-05-14T01:10:21.887Z,99.99
2017-05-14T01:10:50.260Z,99.99
2017-05-14T01:11:18.645Z,99.99
2017-05-14T01:11:46.942Z,99.99
2017-05-14T01:12:15.361Z,99.99
2017-05-14T01:12:43.562Z,99.99
2017-05-14T01:13:11.816Z,99.99
2017-05-14T01:14:23.312Z,99.99
2017-05-14T01:14:51.749Z,99.99
2017-05-14T01:15:19.986Z,99.99
2017-05-14T01:15:48.159Z,99.99
2017-05-14T01:16:16.502Z,99.99
2017-05-14T01:16:44.783Z,99.99
2017-05-14T01:17:13.167Z,99.99
2017-05-14T01:17:41.564Z,99.99
2017-05-14T01:18:09.984Z,99.99
2017-05-14T01:18:38.283Z,99.99
2017-05-14T01:19:06.664Z,99.99
2017-05-14T01:20:18.164Z,99.99
2017-05-14T01:20:46.358Z,99.99
2017-05-14T01:21:14.744Z,99.99
2017-05-14T01:21:43.000Z,99.99
2017-05-14T01:22:11.343Z,99.99
2017-05-14T01:22:39.629Z,99.99
2017-05-14T01:23:08.017Z,99.99
2017-05-14T01:23:36.323Z,99.99
2017-05-14T01:24:04.744Z,99.99
2017-05-14T01:24:33.037Z,99.99
2017-05-14T01:25:01.426Z,99.99
2017-05-14T01:26:12.836Z,99.99
2017-05-14T01:26:41.044Z,99.99
2017-05-14T01:27:09.244Z,99.99
2017-05-14T01:27:37.591Z,99.99
2017-05-14T01:28:05.749Z,99.99
2017-05-14T01:28:33.934Z,99.99
2017-05-14T01:29:02.219Z,99.99
2017-05-14T01:29:30.528Z,99.99
2017-05-14T01:29:58.860Z,99.99
2017-05-14T01:30:27.247Z,99.99
2017-05-14T01:30:55.636Z,99.99
2017-05-14T01:32:07.136Z,99.99
2017-05-14T01:32:35.521Z,99.99
2017-05-14T01:33:03.763Z,99.99
2017-05-14T01:33:32.017Z,99.99
2017-05-14T01:34:00.364Z,99.99
2017-05-14T01:34:28.558Z,99.99
2017-05-14T01:34:56.767Z,99.99
2017-05-14T01:35:24.979Z,99.99
2017-05-14T01:35:53.309Z,99.99
2017-05-14T01:36:21.502Z,99.99
2017-05-14T01:36:49.804Z,99.99
2017-05-14T01:38:01.216Z,99.99
2017-05-14T01:38:29.605Z,99.99
2017-05-14T01:38:57.988Z,99.99
2017-05-14T01:39:26.329Z,99.99
2017-05-14T01:39:54.673Z,99.99
2017-05-14T01:40:22.860Z,99.99
2017-05-14T01:40:50.966Z,99.99
2017-05-14T01:41:19.265Z,99.99
2017-05-14T01:41:47.592Z,99.99
2017-05-14T01:42:15.975Z,99.99
2017-05-14T01:42:44.264Z,99.99
2017-05-14T01:43:55.823Z,99.99
2017-05-14T01:44:24.158Z,99.99
2017-05-14T01:44:52.543Z,99.99
2017-05-14T01:45:20.797Z,99.99
2017-05-14T01:45:49.142Z,99.99
2017-05-14T01:46:17.420Z,99.99
2017-05-14T01:46:45.813Z,99.99
2017-05-14T01:47:14.206Z,99.99
2017-05-14T01:47:42.626Z,99.99
2017-05-14T01:48:11.012Z,99.99
2017-05-14T01:48:39.405Z,99.99
2017-05-14T01:49:50.908Z,99.99
2017-05-14T01:50:19.197Z,99.99
2017-05-14T01:50:47.490Z,99.99
2017-05-14T01:51:15.740Z,99.99
2017-05-14T01:51:43.991Z,99.99
2017-05-14T01:52:12.371Z,99.99
2017-05-14T01:52:40.758Z,99.99
2017-05-14T01:53:09.062Z,99.99
2017-05-14T01:53:37.298Z,99.99
2017-05-14T01:54:05.685Z,99.99
2017-05-14T01:54:33.984Z,99.99
2017-05-14T01:55:45.399Z,99.99
2017-05-14T01:56:13.698Z,99.99
2017-05-14T01:56:42.081Z,99.99
2017-05-14T01:57:10.330Z,99.99
2017-05-14T01:57:38.579Z,99.99
2017-05-14T01:58:06.772Z,99.99
2017-05-14T01:58:35.159Z,99.99
2017-05-14T01:59:04.308Z,99.99
2017-05-14T01:59:32.730Z,99.99
2017-05-14T02:00:00.835Z,99.99
2017-05-14T02:00:29.224Z,99.99
2017-05-14T02:01:40.632Z,99.99
2017-05-14T02:02:08.919Z,99.99
2017-05-14T02:02:37.214Z,99.99
2017-05-14T02:03:05.469Z,99.99
2017-05-14T02:03:33.718Z,99.99
2017-05-14T02:04:02.098Z,99.99
2017-05-14T02:04:30.484Z,99.99
2017-05-14T02:04:58.787Z,99.99
2017-05-14T02:05:27.118Z,99.99
2017-05-14T02:05:55.321Z,99.99
2017-05-14T02:06:23.715Z,99.99
2017-05-14T02:07:35.131Z,99.99
2017-05-14T02:08:03.515Z,99.99
2017-05-14T02:08:31.802Z,99.99
2017-05-14T02:09:00.101Z,99.99
2017-05-14T02:09:28.445Z,99.99
2017-05-14T02:09:56.819Z,99.99
2017-05-14T02:10:25.116Z,99.99
2017-05-14T02:10:53.423Z,99.99
2017-05-14T02:11:21.842Z,99.99
2017-05-14T02:11:50.044Z,99.99
2017-05-14T02:12:18.342Z,99.99
2017-05-14T02:13:29.839Z,99.99
2017-05-14T02:13:58.133Z,99.99
2017-05-14T02:14:26.342Z,99.99
2017-05-14T02:14:54.598Z,99.99
2017-05-14T02:15:22.943Z,99.99
2017-05-14T02:15:51.225Z,99.99
2017-05-14T02:16:19.426Z,99.99
2017-05-14T02:16:47.827Z,99.99
2017-05-14T02:17:16.247Z,99.99
2017-05-14T02:17:44.455Z,99.99
2017-05-14T02:18:12.756Z,99.99
2017-05-14T02:19:24.161Z,99.99
2017-05-14T02:19:52.547Z,99.99
2017-05-14T02:20:20.837Z,99.99
2017-05-14T02:20:49.001Z,99.99
2017-05-14T02:21:17.342Z,99.99
2017-05-14T02:21:45.721Z,99.99
2017-05-14T02:22:14.010Z,99.99
2017-05-14T02:22:42.315Z,99.99
2017-05-14T02:23:10.733Z,99.99
2017-05-14T02:23:39.123Z,99.99
2017-05-14T02:24:07.511Z,99.99
2017-05-14T02:25:19.013Z,99.99
2017-05-14T02:25:47.310Z,99.99
2017-05-14T02:26:15.601Z,99.99
2017-05-14T02:26:43.857Z,99.99
2017-05-14T02:27:12.108Z,99.99
2017-05-14T02:27:40.486Z,99.99
2017-05-14T02:28:08.869Z,99.99
2017-05-14T02:28:37.175Z,99.99
2017-05-14T02:29:05.597Z,99.99
2017-05-14T02:29:33.891Z,99.99
2017-05-14T02:30:02.280Z,99.99
2017-05-14T02:31:13.792Z,99.99
2017-05-14T02:31:42.160Z,99.99
2017-05-14T02:32:10.546Z,99.99
2017-05-14T02:32:38.796Z,99.99
2017-05-14T02:33:07.050Z,99.99
2017-05-14T02:33:35.423Z,99.99
2017-05-14T02:34:03.711Z,99.99
2017-05-14T02:34:32.019Z,99.99
2017-05-14T02:35:00.259Z,99.99
2017-05-14T02:35:28.646Z,99.99
2017-05-14T02:35:57.041Z,99.99
2017-05-14T02:37:08.545Z,99.99
2017-05-14T02:37:36.747Z,99.99
2017-05-14T02:38:05.127Z,99.99
2017-05-14T02:38:33.473Z,99.99
2017-05-14T02:39:01.822Z,99.99
2017-05-14T02:39:30.104Z,99.99
2017-05-14T02:39:58.519Z,99.99
2017-05-14T02:40:26.745Z,99.99
2017-05-14T02:40:55.159Z,99.99
2017-05-14T02:41:23.454Z,99.99
2017-05-14T02:41:51.849Z,99.99
2017-05-14T02:43:03.263Z,99.99
2017-05-14T02:43:31.560Z,99.99
2017-05-14T02:43:59.851Z,99.99
2017-05-14T02:44:28.111Z,99.99
2017-05-14T02:44:56.272Z,99.99
2017-05-14T02:45:24.553Z,99.99
2017-05-14T02:45:52.852Z,99.99
2017-05-14T02:46:21.058Z,99.99
2017-05-14T02:46:49.381Z,99.99
2017-05-14T02:47:17.762Z,99.99
2017-05-14T02:47:46.155Z,99.99
2017-05-14T02:48:57.654Z,99.99
2017-05-14T02:49:26.045Z,99.99
2017-05-14T02:49:54.580Z,99.99
2017-05-14T02:50:22.923Z,99.99
2017-05-14T02:50:51.270Z,99.99
2017-05-14T02:51:19.553Z,99.99
2017-05-14T02:51:47.941Z,99.99
2017-05-14T02:52:16.346Z,99.99
2017-05-14T02:52:44.763Z,99.99
2017-05-14T02:53:13.147Z,99.99
2017-05-14T02:53:41.538Z,99.99
2017-05-14T02:54:53.038Z,99.99
2017-05-14T02:55:21.426Z,99.99
2017-05-14T02:55:49.811Z,99.99
2017-05-14T02:56:17.975Z,99.99
2017-05-14T02:56:46.322Z,99.99
2017-05-14T02:57:14.604Z,99.99
2017-05-14T02:57:42.986Z,99.99
2017-05-14T02:58:11.384Z,99.99
2017-05-14T02:58:39.619Z,99.99
2017-05-14T02:59:08.003Z,99.99
2017-05-14T02:59:36.394Z,99.99
2017-05-14T03:00:47.894Z,99.99
2017-05-14T03:01:16.283Z,99.99
2017-05-14T03:01:44.571Z,99.99
2017-05-14T03:02:12.824Z,99.99
2017-05-14T03:02:41.071Z,99.99
2017-05-14T03:03:09.452Z,99.99
2017-05-14T03:03:37.745Z,99.99
2017-05-14T03:04:05.961Z,99.99
2017-05-14T03:04:34.382Z,99.99
2017-05-14T03:05:02.674Z,99.99
2017-05-14T03:05:30.883Z,99.99
2017-05-14T03:06:42.378Z,99.99
2017-05-14T03:07:10.765Z,99.99
2017-05-14T03:07:39.153Z,99.99
2017-05-14T03:08:07.405Z,99.99
2017-05-14T03:08:35.657Z,99.99
2017-05-14T03:09:04.031Z,99.99
2017-05-14T03:09:32.316Z,99.99
2017-05-14T03:10:00.527Z,99.99
2017-05-14T03:10:28.761Z,99.99
2017-05-14T03:10:56.960Z,99.99
2017-05-14T03:11:25.348Z,99.99
2017-05-14T03:12:36.850Z,99.99
2017-05-14T03:13:05.146Z,99.99
2017-05-14T03:13:33.520Z,99.99
2017-05-14T03:14:01.683Z,99.99
2017-05-14T03:14:30.025Z,99.99
2017-05-14T03:14:58.405Z,99.99
2017-05-14T03:15:26.787Z,99.99
2017-05-14T03:15:55.090Z,99.99
2017-05-14T03:16:23.511Z,99.99
2017-05-14T03:16:51.896Z,99.99
2017-05-14T03:17:20.195Z,99.99
2017-05-14T03:18:31.694Z,99.99
2017-05-14T03:19:00.080Z,99.99
2017-05-14T03:19:28.367Z,99.99
2017-05-14T03:19:56.621Z,99.99
2017-05-14T03:20:24.780Z,99.99
2017-05-14T03:20:53.156Z,99.99
2017-05-14T03:21:21.448Z,99.99
2017-05-14T03:21:49.848Z,99.99
2017-05-14T03:22:18.178Z,99.99
2017-05-14T03:22:46.567Z,99.99
2017-05-14T03:23:14.956Z,99.99
2017-05-14T03:24:26.455Z,99.99
2017-05-14T03:24:54.850Z,99.99
2017-05-14T03:25:23.234Z,99.99
2017-05-14T03:25:51.497Z,99.99
2017-05-14T03:26:19.839Z,99.99
2017-05-14T03:26:48.221Z,99.99
2017-05-14T03:27:16.508Z,99.99
2017-05-14T03:27:44.812Z,99.99
2017-05-14T03:28:13.234Z,99.99
2017-05-14T03:28:41.529Z,99.99
2017-05-14T03:29:09.920Z,99.99
2017-05-14T03:30:21.417Z,99.99
2017-05-14T03:30:49.810Z,99.99
2017-05-14T03:31:18.095Z,99.99
2017-05-14T03:31:46.258Z,99.99
2017-05-14T03:32:14.601Z,99.99
2017-05-14T03:32:42.792Z,99.99
2017-05-14T03:33:11.182Z,99.99
2017-05-14T03:33:39.581Z,99.99
2017-05-14T03:34:08.000Z,99.99
2017-05-14T03:34:36.297Z,99.99
2017-05-14T03:35:04.691Z,99.99
2017-05-14T03:36:16.196Z,99.99
2017-05-14T03:36:44.400Z,99.99
2017-05-14T03:37:12.594Z,99.99
2017-05-14T03:37:40.851Z,99.99
2017-05-14T03:38:09.194Z,99.99
2017-05-14T03:38:37.573Z,99.99
2017-05-14T03:39:05.956Z,99.99
2017-05-14T03:39:34.355Z,99.99
2017-05-14T03:40:02.775Z,99.99
2017-05-14T03:40:31.165Z,99.99
2017-05-14T03:40:59.462Z,99.99
2017-05-14T03:42:10.964Z,99.99
2017-05-14T03:42:39.347Z,99.99
2017-05-14T03:43:07.728Z,99.99
2017-05-14T03:43:35.986Z,99.99
2017-05-14T03:44:04.235Z,99.99
2017-05-14T03:44:32.433Z,99.99
2017-05-14T03:45:00.814Z,99.99
2017-05-14T03:45:29.027Z,99.99
2017-05-14T03:45:57.453Z,99.99
2017-05-14T03:46:25.651Z,99.99
2017-05-14T03:46:54.042Z,99.99
2017-05-14T03:48:05.541Z,99.99
2017-05-14T03:48:33.930Z,99.99
2017-05-14T03:49:02.220Z,99.99
2017-05-14T03:49:30.567Z,99.99
2017-05-14T03:49:58.767Z,99.99
2017-05-14T03:50:26.958Z,99.99
2017-05-14T03:50:55.348Z,99.99
2017-05-14T03:51:23.746Z,99.99
2017-05-14T03:51:52.165Z,99.99
2017-05-14T03:52:20.459Z,99.99
2017-05-14T03:52:48.851Z,99.99
2017-05-14T03:54:00.351Z,99.99
2017-05-14T03:54:28.646Z,99.99
2017-05-14T03:54:57.031Z,99.99
2017-05-14T03:55:25.280Z,99.99
2017-05-14T03:55:53.527Z,99.99
2017-05-14T03:56:21.904Z,99.99
2017-05-14T03:56:50.283Z,99.99
2017-05-14T03:57:18.684Z,99.99
2017-05-14T03:57:47.100Z,99.99
2017-05-14T03:58:15.491Z,99.99
2017-05-14T03:58:43.876Z,99.99
2017-05-14T03:59:55.377Z,99.99
2017-05-14T04:00:23.670Z,99.99
2017-05-14T04:00:51.869Z,99.99
2017-05-14T04:01:20.218Z,99.99
2017-05-14T04:01:48.469Z,99.99
2017-05-14T04:02:16.845Z,99.99
2017-05-14T04:02:45.227Z,99.99
2017-05-14T04:03:13.443Z,99.99
2017-05-14T04:03:41.867Z,99.99
2017-05-14T04:04:10.164Z,99.99
2017-05-14T04:04:38.459Z,99.99
2017-05-14T04:05:49.953Z,99.99
2017-05-14T04:06:18.345Z,99.99
2017-05-14T04:06:46.635Z,99.99
2017-05-14T04:07:14.795Z,99.99
2017-05-14T04:07:43.047Z,99.99
2017-05-14T04:08:11.336Z,99.99
2017-05-14T04:08:39.719Z,99.99
2017-05-14T04:09:08.029Z,99.99
2017-05-14T04:09:36.455Z,99.99
2017-05-14T04:10:04.746Z,99.99
2017-05-14T04:10:33.042Z,99.99
2017-05-14T04:11:44.444Z,99.99
2017-05-14T04:12:12.647Z,99.99
2017-05-14T04:12:40.939Z,99.99
2017-05-14T04:13:09.199Z,99.99
2017-05-14T04:13:37.448Z,99.99
2017-05-14T04:14:05.734Z,99.99
2017-05-14T04:14:34.030Z,99.99
2017-05-14T04:15:02.238Z,99.99
2017-05-14T04:15:30.566Z,99.99
2017-05-14T04:15:58.950Z,99.99
2017-05-14T04:16:27.245Z,99.99
2017-05-14T04:17:38.654Z,99.99
2017-05-14T04:18:07.042Z,99.99
2017-05-14T04:18:35.426Z,99.99
2017-05-14T04:19:03.769Z,99.99
2017-05-14T04:19:32.019Z,99.99
2017-05-14T04:20:00.306Z,99.99
2017-05-14T04:20:28.599Z,99.99
2017-05-14T04:20:56.996Z,99.99
2017-05-14T04:21:25.316Z,99.99
2017-05-14T04:21:53.520Z,99.99
2017-05-14T04:22:21.821Z,99.99
2017-05-14T04:23:33.317Z,99.99
2017-05-14T04:24:01.704Z,99.99
2017-05-14T04:24:30.095Z,99.99
2017-05-14T04:24:58.343Z,99.99
2017-05-14T04:25:26.601Z,99.99
2017-05-14T04:25:54.969Z,99.99
2017-05-14T04:26:23.257Z,99.99
2017-05-14T04:26:51.470Z,99.99
2017-05-14T04:27:19.891Z,99.99
2017-05-14T04:27:48.192Z,99.99
2017-05-14T04:28:16.487Z,99.99
2017-05-14T04:29:27.889Z,99.99
2017-05-14T04:29:56.087Z,99.99
2017-05-14T04:30:24.471Z,99.99
2017-05-14T04:30:52.727Z,99.99
2017-05-14T04:31:21.027Z,99.99
2017-05-14T04:31:49.266Z,99.99
2017-05-14T04:32:17.562Z,99.99
2017-05-14T04:32:45.964Z,99.99
2017-05-14T04:33:14.387Z,99.99
2017-05-14T04:33:42.770Z,99.99
2017-05-14T04:34:10.967Z,99.99
2017-05-14T04:35:22.283Z,99.99
2017-05-14T04:35:50.666Z,99.99
2017-05-14T04:36:18.951Z,99.99
2017-05-14T04:36:47.114Z,99.99
2017-05-14T04:37:15.362Z,99.99
2017-05-14T04:37:43.549Z,99.99
2017-05-14T04:38:11.835Z,99.99
2017-05-14T04:38:40.138Z,99.99
2017-05-14T04:39:08.565Z,99.99
2017-05-14T04:39:36.767Z,99.99
2017-05-14T04:40:04.973Z,99.99
2017-05-14T04:41:16.381Z,99.99
2017-05-14T04:41:44.579Z,99.99
2017-05-14T04:42:12.965Z,99.99
2017-05-14T04:42:41.118Z,99.99
2017-05-14T04:43:09.371Z,99.99
2017-05-14T04:43:37.563Z,99.99
2017-05-14T04:44:05.944Z,99.99
2017-05-14T04:44:34.339Z,99.99
2017-05-14T04:45:02.659Z,99.99
2017-05-14T04:45:30.861Z,99.99
2017-05-14T04:45:59.159Z,99.99
2017-05-14T04:47:10.564Z,99.99
2017-05-14T04:47:38.667Z,99.99
2017-05-14T04:48:06.875Z,99.99
2017-05-14T04:48:35.129Z,99.99
2017-05-14T04:49:03.475Z,99.88
2017-05-14T04:49:31.749Z,99.99
2017-05-14T04:50:00.034Z,99.99
2017-05-14T04:50:28.339Z,99.99
2017-05-14T04:50:56.573Z,99.99
2017-05-14T04:51:24.867Z,99.99
2017-05-14T04:51:53.062Z,99.99
2017-05-14T04:53:04.464Z,99.99
2017-05-14T04:53:32.662Z,99.99
2017-05-14T04:54:00.859Z,99.99
2017-05-14T04:54:29.111Z,99.99
2017-05-14T04:54:57.452Z,99.99
2017-05-14T04:55:25.637Z,99.99
2017-05-14T04:55:53.839Z,99.99
2017-05-14T04:56:22.145Z,99.99
2017-05-14T04:56:50.470Z,99.98
2017-05-14T04:57:18.574Z,99.99
2017-05-14T04:57:46.873Z,99.99
2017-05-14T04:58:58.375Z,99.99
2017-05-14T04:59:26.756Z,99.99
2017-05-14T04:59:55.044Z,99.99
2017-05-14T05:00:23.390Z,99.99
2017-05-14T05:00:51.732Z,99.99
2017-05-14T05:01:19.918Z,99.99
2017-05-14T05:01:48.304Z,99.99
2017-05-14T05:02:16.703Z,99.99
2017-05-14T05:02:45.118Z,99.99
2017-05-14T05:03:13.408Z,99.99
2017-05-14T05:03:41.710Z,99.99
2017-05-14T05:04:53.117Z,99.99
2017-05-14T05:05:21.224Z,99.99
2017-05-14T05:05:49.514Z,99.99
2017-05-14T05:06:17.763Z,99.99
2017-05-14T05:06:46.012Z,99.99
2017-05-14T05:07:14.195Z,99.99
2017-05-14T05:07:42.485Z,99.99
2017-05-14T05:08:10.886Z,99.99
2017-05-14T05:08:39.311Z,99.99
2017-05-14T05:09:07.420Z,99.99
2017-05-14T05:09:35.814Z,99.99
2017-05-14T05:10:47.313Z,99.99
2017-05-14T05:11:15.707Z,99.99
2017-05-14T05:11:44.090Z,99.99
2017-05-14T05:12:12.339Z,99.99
2017-05-14T05:12:40.608Z,99.99
2017-05-14T05:13:08.988Z,99.99
2017-05-14T05:13:37.375Z,99.99
2017-05-14T05:14:05.590Z,99.99
2017-05-14T05:14:34.004Z,99.99
2017-05-14T05:15:02.298Z,99.99
2017-05-14T05:15:30.686Z,99.99
2017-05-14T05:16:42.185Z,99.99
2017-05-14T05:17:10.384Z,99.99
2017-05-14T05:17:38.763Z,99.99
2017-05-14T05:18:07.022Z,99.99
2017-05-14T05:18:35.176Z,99.99
2017-05-14T05:19:03.461Z,99.99
2017-05-14T05:19:31.748Z,99.99
2017-05-14T05:20:00.145Z,99.99
2017-05-14T05:20:28.464Z,99.99
2017-05-14T05:20:56.754Z,99.99
2017-05-14T05:21:25.052Z,99.99
2017-05-14T05:22:36.547Z,99.99
2017-05-14T05:23:04.936Z,99.99
2017-05-14T05:23:33.224Z,99.99
2017-05-14T05:24:01.572Z,99.99
2017-05-14T05:24:29.818Z,99.99
2017-05-14T05:24:58.111Z,99.99
2017-05-14T05:25:26.301Z,99.99
2017-05-14T05:25:54.699Z,99.99
2017-05-14T05:26:23.118Z,99.99
2017-05-14T05:26:51.315Z,99.99
2017-05-14T05:27:19.515Z,99.99
2017-05-14T05:28:31.010Z,99.99
2017-05-14T05:28:59.300Z,99.99
2017-05-14T05:29:27.591Z,99.99
2017-05-14T05:29:55.846Z,99.99
2017-05-14T05:30:24.187Z,99.99
2017-05-14T05:30:52.565Z,99.99
2017-05-14T05:31:20.857Z,99.99
2017-05-14T05:31:49.163Z,99.99
2017-05-14T05:32:17.490Z,99.99
2017-05-14T05:32:45.877Z,99.99
2017-05-14T05:33:14.079Z,99.99
2017-05-14T05:34:25.487Z,99.99
2017-05-14T05:34:53.769Z,99.99
2017-05-14T05:35:22.152Z,99.99
2017-05-14T05:35:50.498Z,99.99
2017-05-14T05:36:18.747Z,99.99
2017-05-14T05:36:47.122Z,99.99
2017-05-14T05:37:15.229Z,99.99
2017-05-14T05:37:43.529Z,99.99
2017-05-14T05:38:11.852Z,99.99
2017-05-14T05:38:40.161Z,99.99
2017-05-14T05:39:08.461Z,99.99
2017-05-14T05:40:19.867Z,99.99
2017-05-14T05:40:48.253Z,99.99
2017-05-14T05:41:16.542Z,99.99
2017-05-14T05:41:44.703Z,99.99
2017-05-14T05:42:13.044Z,99.99
2017-05-14T05:42:41.327Z,99.99
2017-05-14T05:43:09.426Z,99.99
2017-05-14T05:43:37.732Z,99.99
2017-05-14T05:44:06.152Z,99.99
2017-05-14T05:44:34.443Z,99.99
2017-05-14T05:45:02.832Z,99.99
2017-05-14T05:46:14.334Z,99.99
2017-05-14T05:46:42.626Z,99.99
2017-05-14T05:47:10.918Z,99.99
2017-05-14T05:47:39.082Z,99.99
2017-05-14T05:48:07.242Z,99.99
2017-05-14T05:48:35.343Z,99.99
2017-05-14T05:49:03.720Z,99.99
2017-05-14T05:49:31.931Z,99.99
2017-05-14T05:50:00.259Z,99.99
2017-05-14T05:50:28.550Z,99.99
2017-05-14T05:50:56.852Z,99.99
2017-05-14T05:52:08.254Z,99.99
2017-05-14T05:52:36.641Z,99.99
2017-05-14T05:53:05.021Z,99.99
2017-05-14T05:53:33.180Z,99.99
2017-05-14T05:54:01.519Z,99.99
2017-05-14T05:54:29.897Z,99.99
2017-05-14T05:54:58.190Z,99.99
2017-05-14T05:55:26.405Z,99.99
2017-05-14T05:55:54.827Z,99.99
2017-05-14T05:56:23.213Z,99.99
2017-05-14T05:56:51.417Z,99.99
2017-05-14T05:58:02.919Z,99.99
2017-05-14T05:58:31.213Z,99.99
2017-05-14T05:58:59.596Z,99.99
2017-05-14T05:59:27.940Z,99.99
2017-05-14T05:59:56.290Z,99.99
2017-05-14T06:00:24.659Z,99.99
2017-05-14T06:00:52.951Z,99.99
2017-05-14T06:01:21.254Z,99.99
2017-05-14T06:01:49.580Z,99.99
2017-05-14T06:02:17.872Z,99.99
2017-05-14T06:02:46.266Z,99.99
2017-05-14T06:03:57.672Z,99.99
2017-05-14T06:04:25.962Z,99.99
2017-05-14T06:04:54.251Z,99.99
2017-05-14T06:05:22.316Z,99.99
2017-05-14T06:05:50.561Z,99.99
2017-05-14T06:06:18.843Z,99.99
2017-05-14T06:06:47.231Z,99.98
2017-05-14T06:07:15.630Z,99.88
2017-05-14T06:07:44.045Z,99.99
2017-05-14T06:08:12.336Z,99.99
2017-05-14T06:08:40.631Z,99.88
2017-05-14T06:09:52.030Z,99.69
2017-05-14T06:10:20.418Z,99.88
2017-05-14T06:10:48.799Z,99.69
2017-05-14T06:11:17.054Z,99.64
2017-05-14T06:11:45.399Z,99.59
2017-05-14T06:12:13.772Z,99.79
2017-05-14T06:12:42.059Z,99.69
2017-05-14T06:13:10.363Z,99.79
2017-05-14T06:13:38.691Z,99.59
2017-05-14T06:14:06.982Z,99.88
2017-05-14T06:14:35.283Z,99.59
2017-05-14T06:15:46.779Z,99.99
2017-05-14T06:16:14.981Z,99.88
2017-05-14T06:16:43.274Z,99.88
2017-05-14T06:17:11.621Z,99.99
2017-05-14T06:17:39.872Z,99.99
2017-05-14T06:18:08.154Z,99.69
2017-05-14T06:18:36.539Z,99.98
2017-05-14T06:19:04.936Z,99.69
2017-05-14T06:19:33.176Z,99.59
2017-05-14T06:20:01.397Z,99.69
2017-05-14T06:20:29.787Z,99.79
2017-05-14T06:21:41.196Z,99.99
2017-05-14T06:22:09.481Z,99.69
2017-05-14T06:22:37.581Z,99.5
2017-05-14T06:23:05.831Z,99.5
2017-05-14T06:23:34.179Z,99.59
2017-05-14T06:24:02.465Z,99.84
2017-05-14T06:24:30.663Z,99.59
2017-05-14T06:24:59.062Z,99.59
2017-05-14T06:25:27.475Z,99.5
2017-05-14T06:25:55.773Z,99.79
2017-05-14T06:26:24.068Z,99.69
2017-05-14T06:27:35.573Z,99.4
2017-05-14T06:28:03.962Z,99.21
2017-05-14T06:28:32.249Z,99.3
2017-05-14T06:29:00.501Z,99.11
2017-05-14T06:29:28.747Z,99.02
2017-05-14T06:29:57.125Z,99.26
2017-05-14T06:30:25.506Z,99.59
2017-05-14T06:30:53.811Z,99.26
2017-05-14T06:31:22.044Z,99.11
2017-05-14T06:31:50.245Z,99.11
2017-05-14T06:32:18.536Z,99.79
2017-05-14T06:33:30.035Z,99.79
2017-05-14T06:33:58.330Z,99.59
2017-05-14T06:34:26.614Z,99.59
2017-05-14T06:34:54.866Z,99.4
2017-05-14T06:35:23.024Z,99.4
2017-05-14T06:35:51.304Z,99.5
2017-05-14T06:36:19.685Z,99.3
2017-05-14T06:36:47.897Z,99.4
2017-05-14T06:37:16.227Z,99.11
2017-05-14T06:37:44.436Z,99.79
2017-05-14T06:38:12.730Z,99.69
2017-05-14T06:39:24.231Z,99.69
2017-05-14T06:39:52.432Z,98.92
2017-05-14T06:40:20.724Z,99.11
2017-05-14T06:40:48.882Z,99.11
2017-05-14T06:41:17.129Z,99.3
2017-05-14T06:41:45.501Z,99.21
2017-05-14T06:42:13.603Z,99.3
2017-05-14T06:42:41.908Z,99.3
2017-05-14T06:43:10.333Z,99.11
2017-05-14T06:43:38.527Z,99.4
2017-05-14T06:44:06.731Z,98.82
2017-05-14T06:45:17.945Z,98.68
2017-05-14T06:45:46.237Z,98.92
2017-05-14T06:46:14.618Z,98.44
2017-05-14T06:46:42.965Z,98.68
2017-05-14T06:47:11.303Z,98.63
2017-05-14T06:47:39.585Z,98.77
2017-05-14T06:48:07.971Z,98.82
2017-05-14T06:48:36.182Z,98.54
2017-05-14T06:49:04.602Z,98.49
2017-05-14T06:49:32.892Z,98.92
2017-05-14T06:50:01.099Z,98.44
2017-05-14T06:51:12.499Z,98.63
2017-05-14T06:51:40.889Z,98.82
2017-05-14T06:52:09.178Z,99.5
2017-05-14T06:52:37.328Z,99.3
2017-05-14T06:53:05.669Z,99.02
2017-05-14T06:53:34.042Z,98.92
2017-05-14T06:54:02.431Z,99.3
2017-05-14T06:54:30.830Z,99.3
2017-05-14T06:54:59.249Z,99.02
2017-05-14T06:55:27.446Z,98.92